createdAt,value
2018-11-03T00:00:38.540Z,11.53
2018-11-03T00:03:05.791Z,10.82
2018-11-03T00:05:33.072Z,12.60
2018-11-03T00:08:00.353Z,13.20
2018-11-03T00:10:27.608Z,11.55
2018-11-03T00:12:54.877Z,11.80
2018-11-03T00:15:22.101Z,12.47
2018-11-03T00:17:49.366Z,11.10
2018-11-03T00:20:16.578Z,11.80
2018-11-03T00:22:43.821Z,13.30
2018-11-03T00:25:11.077Z,11.38
2018-11-03T00:27:38.273Z,11.28
2018-11-03T00:30:07.289Z,11.50
2018-11-03T00:32:34.631Z,11.68
2018-11-03T00:35:01.880Z,10.90
2018-11-03T00:37:29.167Z,11.90
2018-11-03T00:39:56.412Z,12.00
2018-11-03T00:42:23.713Z,11.90
2018-11-03T00:44:50.981Z,10.90
2018-11-03T00:47:18.260Z,11.78
2018-11-03T00:49:45.471Z,11.43
2018-11-03T00:52:12.690Z,11.65
2018-11-03T00:54:39.940Z,12.50
2018-11-03T00:57:07.220Z,12.23
2018-11-03T00:59:34.451Z,11.33
2018-11-03T01:02:01.662Z,13.95
2018-11-03T01:04:28.925Z,12.15
2018-11-03T01:06:56.280Z,12.20
2018-11-03T01:09:23.554Z,13.13
2018-11-03T01:11:50.830Z,11.33
2018-11-03T01:14:18.095Z,10.88
2018-11-03T01:16:45.325Z,13.03
2018-11-03T01:19:12.845Z,12.60
2018-11-03T01:21:40.236Z,11.80
2018-11-03T01:24:07.788Z,12.63
2018-11-03T01:26:35.108Z,11.88
2018-11-03T01:29:02.398Z,12.35
2018-11-03T01:31:29.674Z,12.40
2018-11-03T01:33:56.947Z,12.58
2018-11-03T01:36:24.306Z,13.88
2018-11-03T01:38:51.578Z,11.18
2018-11-03T01:41:18.872Z,11.48
2018-11-03T01:43:46.108Z,12.13
2018-11-03T01:46:13.553Z,11.35
2018-11-03T01:48:40.791Z,12.50
2018-11-03T01:51:08.045Z,14.58
2018-11-03T01:53:35.362Z,13.60
2018-11-03T01:56:02.588Z,13.25
2018-11-03T01:58:29.868Z,14.73
2018-11-03T02:00:57.138Z,14.25
2018-11-03T02:03:24.379Z,14.93
2018-11-03T02:05:51.715Z,14.47
2018-11-03T02:08:18.974Z,13.45
2018-11-03T02:10:46.264Z,13.40
2018-11-03T02:13:13.575Z,13.18
2018-11-03T02:15:40.882Z,13.55
2018-11-03T02:18:08.222Z,13.58
2018-11-03T02:20:35.461Z,14.35
2018-11-03T02:23:02.770Z,14.23
2018-11-03T02:25:30.061Z,13.50
2018-11-03T02:27:57.364Z,12.23
2018-11-03T02:30:24.642Z,14.10
2018-11-03T02:32:51.897Z,14.30
2018-11-03T02:35:19.068Z,14.60
2018-11-03T02:37:46.335Z,15.18
2018-11-03T02:40:13.586Z,15.58
2018-11-03T02:42:48.993Z,13.48
2018-11-03T02:45:16.530Z,14.73
2018-11-03T02:47:43.756Z,13.78
2018-11-03T02:50:12.465Z,14.15
2018-11-03T02:52:39.878Z,13.83
2018-11-03T02:55:07.105Z,16.05
2018-11-03T02:57:34.375Z,13.58
2018-11-03T03:00:01.671Z,14.93
2018-11-03T03:02:28.961Z,14.75
2018-11-03T03:04:56.257Z,15.50
2018-11-03T03:07:23.531Z,15.98
2018-11-03T03:09:50.779Z,13.62
2018-11-03T03:12:18.032Z,14.05
2018-11-03T03:14:45.285Z,15.78
2018-11-03T03:17:12.606Z,15.88
2018-11-03T03:19:39.803Z,16.67
2018-11-03T03:22:07.013Z,14.53
2018-11-03T03:24:34.250Z,15.00
2018-11-03T03:27:01.582Z,13.70
2018-11-03T03:29:29.012Z,15.00
2018-11-03T03:31:56.179Z,13.95
2018-11-03T03:34:23.369Z,15.10
2018-11-03T03:36:50.610Z,14.75
2018-11-03T03:39:17.836Z,13.25
2018-11-03T03:41:45.221Z,13.28
2018-11-03T03:44:12.411Z,14.60
2018-11-03T03:46:39.648Z,14.50
2018-11-03T03:49:06.925Z,13.25
2018-11-03T03:51:34.169Z,14.35
2018-11-03T03:54:01.431Z,14.80
2018-11-03T03:56:28.697Z,14.60
2018-11-03T03:58:55.952Z,14.05
2018-11-03T04:01:23.208Z,15.20
2018-11-03T04:03:50.454Z,14.00
2018-11-03T04:06:17.701Z,14.18
2018-11-03T04:08:44.901Z,15.83
2018-11-03T04:11:12.147Z,13.88
2018-11-03T04:13:39.411Z,13.13
2018-11-03T04:16:06.689Z,13.53
2018-11-03T04:18:34.006Z,13.62
2018-11-03T04:21:01.276Z,15.28
2018-11-03T04:23:28.471Z,13.70
2018-11-03T04:25:55.730Z,15.45
2018-11-03T04:28:23.068Z,14.83
2018-11-03T04:30:50.338Z,13.65
2018-11-03T04:33:17.570Z,14.50
2018-11-03T04:35:44.835Z,14.80
2018-11-03T04:38:12.124Z,14.40
2018-11-03T04:40:39.417Z,14.63
2018-11-03T04:43:06.763Z,14.55
2018-11-03T04:45:35.045Z,13.50
2018-11-03T04:48:02.358Z,17.05
2018-11-03T04:50:29.606Z,13.58
2018-11-03T04:52:56.821Z,13.32
2018-11-03T04:55:24.088Z,14.85
2018-11-03T04:57:51.319Z,15.05
2018-11-03T05:00:18.592Z,13.95
2018-11-03T05:02:45.828Z,14.28
2018-11-03T05:05:13.106Z,15.32
2018-11-03T05:07:40.398Z,13.45
2018-11-03T05:10:08.280Z,13.25
2018-11-03T05:12:35.838Z,14.85
2018-11-03T05:15:03.203Z,14.87
2018-11-03T05:17:30.481Z,14.07
2018-11-03T05:20:01.622Z,14.03
2018-11-03T05:22:28.953Z,14.53
2018-11-03T05:24:56.249Z,13.85
2018-11-03T05:27:23.490Z,14.05
2018-11-03T05:29:50.804Z,14.78
2018-11-03T05:32:18.067Z,14.13
2018-11-03T05:34:45.347Z,14.40
2018-11-03T05:37:12.557Z,14.43
2018-11-03T05:39:39.820Z,12.75
2018-11-03T05:42:07.134Z,14.78
2018-11-03T05:44:34.523Z,14.60
2018-11-03T05:47:01.830Z,12.98
2018-11-03T05:49:29.040Z,13.80
2018-11-03T05:51:56.285Z,13.72
2018-11-03T05:54:23.584Z,15.40
2018-11-03T05:56:50.830Z,14.23
2018-11-03T05:59:18.078Z,15.55
2018-11-03T06:01:45.329Z,15.10
2018-11-03T06:04:12.637Z,14.90
2018-11-03T06:06:39.859Z,14.40
2018-11-03T06:09:08.228Z,14.00
2018-11-03T06:11:35.494Z,15.15
2018-11-03T06:14:02.807Z,13.78
2018-11-03T06:16:30.107Z,13.88
2018-11-03T06:18:57.379Z,14.75
2018-11-03T06:21:24.602Z,13.98
2018-11-03T06:23:51.985Z,13.68
2018-11-03T06:26:19.438Z,14.50
2018-11-03T06:28:46.795Z,13.68
2018-11-03T06:31:14.095Z,14.43
2018-11-03T06:33:41.451Z,14.18
2018-11-03T06:36:08.721Z,17.70
2018-11-03T06:38:35.975Z,14.87
2018-11-03T06:41:03.360Z,14.23
2018-11-03T06:43:30.629Z,14.78
2018-11-03T06:45:57.910Z,15.65
2018-11-03T06:48:25.273Z,14.40
2018-11-03T06:50:52.498Z,14.50
2018-11-03T06:53:19.753Z,16.00
2018-11-03T06:55:47.035Z,14.07
2018-11-03T06:58:14.245Z,15.38
2018-11-03T07:00:41.584Z,14.45
2018-11-03T07:03:08.782Z,20.30
2018-11-03T07:05:36.132Z,20.32
2018-11-03T07:08:03.374Z,18.35
2018-11-03T07:10:30.653Z,17.25
2018-11-03T07:12:58.107Z,17.50
2018-11-03T07:15:25.246Z,19.23
2018-11-03T07:17:52.508Z,17.32
2018-11-03T07:20:19.818Z,16.50
2018-11-03T07:22:47.127Z,15.85
2018-11-03T07:25:14.381Z,13.25
2018-11-03T07:27:41.609Z,13.20
2018-11-03T07:30:10.261Z,13.72
2018-11-03T07:32:37.811Z,12.60
2018-11-03T07:35:05.179Z,11.50
2018-11-03T07:37:32.426Z,13.78
2018-11-03T07:39:59.783Z,11.28
2018-11-03T07:42:27.223Z,12.05
2018-11-03T07:44:54.559Z,11.45
2018-11-03T07:47:21.887Z,12.20
2018-11-03T07:49:49.195Z,10.70
2018-11-03T07:52:16.375Z,11.00
2018-11-03T07:54:43.741Z,12.23
2018-11-03T07:57:10.890Z,12.93
2018-11-03T07:59:38.094Z,29.95
2018-11-03T08:02:05.660Z,21.02
2018-11-03T08:04:32.981Z,12.55
2018-11-03T08:07:00.261Z,10.88
2018-11-03T08:09:27.497Z,10.93
2018-11-03T08:11:54.772Z,10.53
2018-11-03T08:14:22.046Z,11.50
2018-11-03T08:16:49.328Z,11.35
2018-11-03T08:19:16.519Z,9.88
2018-11-03T08:21:43.840Z,10.82
2018-11-03T08:24:11.570Z,12.60
2018-11-03T08:26:38.900Z,15.03
2018-11-03T08:29:06.139Z,10.72
2018-11-03T08:31:33.484Z,10.95
2018-11-03T08:34:00.666Z,9.20
2018-11-03T08:36:27.936Z,11.03
2018-11-03T08:38:55.235Z,10.10
2018-11-03T08:41:22.481Z,9.63
2018-11-03T08:43:49.856Z,8.83
2018-11-03T08:46:17.083Z,9.98
2018-11-03T08:48:44.488Z,10.13
2018-11-03T08:51:11.630Z,10.10
2018-11-03T08:53:38.982Z,10.80
2018-11-03T08:56:06.260Z,11.25
2018-11-03T08:58:33.485Z,9.78
2018-11-03T09:01:01.073Z,10.68
2018-11-03T09:03:28.514Z,10.20
2018-11-03T09:05:55.750Z,11.03
2018-11-03T09:08:23.020Z,9.85
2018-11-03T09:10:50.375Z,9.18
2018-11-03T09:13:17.659Z,9.28
2018-11-03T09:15:44.960Z,9.38
2018-11-03T09:18:12.174Z,9.20
2018-11-03T09:20:39.505Z,9.08
2018-11-03T09:23:06.767Z,10.55
2018-11-03T09:25:33.985Z,9.45
2018-11-03T09:28:01.255Z,9.38
2018-11-03T09:30:28.542Z,9.20
2018-11-03T09:32:55.837Z,8.93
2018-11-03T09:35:23.122Z,9.10
2018-11-03T09:37:50.381Z,8.83
2018-11-03T09:40:18.099Z,9.40
2018-11-03T09:42:46.358Z,9.38
2018-11-03T09:45:13.831Z,10.13
2018-11-03T09:47:41.496Z,10.72
2018-11-03T09:50:10.261Z,9.33
2018-11-03T09:52:37.921Z,8.65
2018-11-03T09:55:06.926Z,11.65
2018-11-03T09:57:34.163Z,9.40
2018-11-03T10:00:01.490Z,9.78
2018-11-03T10:02:28.934Z,8.40
2018-11-03T10:04:56.269Z,9.03
2018-11-03T10:07:23.634Z,10.82
2018-11-03T10:09:51.077Z,8.70
2018-11-03T10:12:18.443Z,9.13
2018-11-03T10:14:45.845Z,9.10
2018-11-03T10:17:13.209Z,7.37
2018-11-03T10:19:40.581Z,8.58
2018-11-03T10:22:08.023Z,9.75
2018-11-03T10:24:35.269Z,9.38
2018-11-03T10:27:02.637Z,9.40
2018-11-03T10:29:29.817Z,8.50
2018-11-03T10:31:57.103Z,9.60
2018-11-03T10:34:24.354Z,9.40
2018-11-03T10:36:51.605Z,9.13
2018-11-03T10:39:18.859Z,8.23
2018-11-03T10:41:46.125Z,9.73
2018-11-03T10:44:13.424Z,9.93
2018-11-03T10:46:40.723Z,9.58
2018-11-03T10:49:08.043Z,9.95
2018-11-03T10:51:35.297Z,8.70
2018-11-03T10:54:02.549Z,9.70
2018-11-03T10:56:29.712Z,9.70
2018-11-03T10:58:57.097Z,9.25
2018-11-03T11:01:30.162Z,9.60
2018-11-03T11:04:03.168Z,9.28
2018-11-03T11:06:36.072Z,9.33
2018-11-03T11:09:09.662Z,9.40
2018-11-03T11:11:42.433Z,8.98
2018-11-03T11:14:09.880Z,9.35
2018-11-03T11:16:37.017Z,8.38
2018-11-03T11:19:04.288Z,9.05
2018-11-03T11:21:31.534Z,9.13
2018-11-03T11:23:58.838Z,9.15
2018-11-03T11:26:26.044Z,9.25
2018-11-03T11:28:53.293Z,9.30
2018-11-03T11:31:20.643Z,9.40
2018-11-03T11:33:47.851Z,10.60
2018-11-03T11:36:15.070Z,9.73
2018-11-03T11:38:42.417Z,9.00
2018-11-03T11:41:09.585Z,8.35
2018-11-03T11:43:36.852Z,9.05
2018-11-03T11:46:04.250Z,9.05
2018-11-03T11:48:31.461Z,9.63
2018-11-03T11:50:58.753Z,9.33
2018-11-03T11:53:25.985Z,8.87
2018-11-03T11:55:53.181Z,19.20
2018-11-03T11:58:20.440Z,35.33
2018-11-03T12:00:47.777Z,9.83
2018-11-03T12:03:14.978Z,8.00
2018-11-03T12:05:42.256Z,8.73
2018-11-03T12:08:09.593Z,8.43
2018-11-03T12:10:36.828Z,10.40
2018-11-03T12:13:04.282Z,8.20
2018-11-03T12:15:31.560Z,10.13
2018-11-03T12:17:58.876Z,8.50
2018-11-03T12:20:26.127Z,8.00
2018-11-03T12:22:53.377Z,8.53
2018-11-03T12:25:20.708Z,8.37
2018-11-03T12:27:55.746Z,9.40
2018-11-03T12:30:23.014Z,8.73
2018-11-03T12:32:51.164Z,7.40
2018-11-03T12:35:18.409Z,8.97
2018-11-03T12:37:45.679Z,8.03
2018-11-03T12:40:14.043Z,9.70
2018-11-03T12:42:41.316Z,8.00
2018-11-03T12:45:09.245Z,9.10
2018-11-03T12:47:36.599Z,9.80
2018-11-03T12:50:04.294Z,8.80
2018-11-03T12:52:31.777Z,9.33
2018-11-03T12:54:59.607Z,9.10
2018-11-03T12:57:26.971Z,8.77
2018-11-03T12:59:54.299Z,8.50
2018-11-03T13:02:21.574Z,7.93
2018-11-03T13:04:48.901Z,9.53
2018-11-03T13:07:16.179Z,10.90
2018-11-03T13:09:43.601Z,8.33
2018-11-03T13:12:10.705Z,7.97
2018-11-03T13:14:38.099Z,8.97
2018-11-03T13:17:05.560Z,9.37
2018-11-03T13:19:33.049Z,8.57
2018-11-03T13:22:00.529Z,8.80
2018-11-03T13:24:27.798Z,9.50
2018-11-03T13:26:55.336Z,8.00
2018-11-03T13:29:22.844Z,9.97
2018-11-03T13:31:50.147Z,9.10
2018-11-03T13:34:17.650Z,9.27
2018-11-03T13:36:44.940Z,8.63
2018-11-03T13:39:12.281Z,9.20
2018-11-03T13:41:39.604Z,9.50
2018-11-03T13:44:07.232Z,8.53
2018-11-03T13:46:34.660Z,9.70
2018-11-03T13:49:02.225Z,9.27
2018-11-03T13:51:29.524Z,8.70
2018-11-03T13:53:56.990Z,8.90
2018-11-03T13:56:24.239Z,9.93
2018-11-03T13:58:51.849Z,9.60
2018-11-03T14:01:19.154Z,8.05
2018-11-03T14:03:46.415Z,9.50
2018-11-03T14:06:13.762Z,9.97
2018-11-03T14:08:41.005Z,8.23
2018-11-03T14:11:08.234Z,9.78
2018-11-03T14:13:35.428Z,9.53
2018-11-03T14:16:02.668Z,9.03
2018-11-03T14:18:30.018Z,8.90
2018-11-03T14:20:57.242Z,9.43
2018-11-03T14:23:24.502Z,9.73
2018-11-03T14:25:51.666Z,9.40
2018-11-03T14:28:18.940Z,8.90
2018-11-03T14:30:46.394Z,10.90
2018-11-03T14:33:13.996Z,8.20
2018-11-03T14:35:41.325Z,9.65
2018-11-03T14:38:08.719Z,9.37
2018-11-03T14:40:35.997Z,9.53
2018-11-03T14:43:03.232Z,10.48
2018-11-03T14:45:32.578Z,9.38
2018-11-03T14:47:59.889Z,10.05
2018-11-03T14:50:32.366Z,8.90
2018-11-03T14:52:59.798Z,9.40
2018-11-03T14:55:27.083Z,10.13
2018-11-03T14:57:54.481Z,10.10
2018-11-03T15:00:21.718Z,8.90
2018-11-03T15:02:48.952Z,9.35
2018-11-03T15:05:16.211Z,8.63
2018-11-03T15:07:43.409Z,8.60
2018-11-03T15:10:11.498Z,9.53
2018-11-03T15:12:39.422Z,9.55
2018-11-03T15:15:08.160Z,10.70
2018-11-03T15:17:35.412Z,10.87
2018-11-03T15:20:02.682Z,9.35
2018-11-03T15:22:29.937Z,9.53
2018-11-03T15:24:57.173Z,10.48
2018-11-03T15:27:24.429Z,9.18
2018-11-03T15:29:51.707Z,10.28
2018-11-03T15:32:18.958Z,10.40
2018-11-03T15:34:46.223Z,10.00
2018-11-03T15:37:13.513Z,11.30
2018-11-03T15:39:40.761Z,9.13
2018-11-03T15:42:08.109Z,11.05
2018-11-03T15:44:35.358Z,9.83
2018-11-03T15:47:02.610Z,10.40
2018-11-03T15:49:29.879Z,9.65
2018-11-03T15:51:57.102Z,9.30
2018-11-03T15:54:24.578Z,9.90
2018-11-03T15:56:51.857Z,9.55
2018-11-03T15:59:19.106Z,11.85
2018-11-03T16:01:46.372Z,11.15
2018-11-03T16:04:13.686Z,11.83
2018-11-03T16:06:40.961Z,9.28
2018-11-03T16:09:09.764Z,10.93
2018-11-03T16:11:37.063Z,9.95
2018-11-03T16:14:04.641Z,10.65
2018-11-03T16:16:31.945Z,10.68
2018-11-03T16:18:59.206Z,10.28
2018-11-03T16:21:26.421Z,10.80
2018-11-03T16:23:53.729Z,10.25
2018-11-03T16:26:20.923Z,11.60
2018-11-03T16:28:48.240Z,10.72
2018-11-03T16:31:15.503Z,10.90
2018-11-03T16:33:42.744Z,11.08
2018-11-03T16:36:10.047Z,11.05
2018-11-03T16:38:37.408Z,9.75
2018-11-03T16:41:04.637Z,11.03
2018-11-03T16:43:31.894Z,11.60
2018-11-03T16:45:59.174Z,10.20
2018-11-03T16:48:26.485Z,11.88
2018-11-03T16:50:53.755Z,10.48
2018-11-03T16:53:21.024Z,11.10
2018-11-03T16:55:48.263Z,11.90
2018-11-03T16:58:15.482Z,12.23
2018-11-03T17:00:42.737Z,11.22
2018-11-03T17:03:09.984Z,11.73
2018-11-03T17:05:37.242Z,12.63
2018-11-03T17:08:04.574Z,11.70
2018-11-03T17:10:31.824Z,13.53
2018-11-03T17:12:59.150Z,11.65
2018-11-03T17:15:26.393Z,14.05
2018-11-03T17:17:53.587Z,13.53
2018-11-03T17:20:20.850Z,13.25
2018-11-03T17:22:48.069Z,11.03
2018-11-03T17:25:15.388Z,13.58
2018-11-03T17:27:42.629Z,12.82
2018-11-03T17:30:11.974Z,13.55
2018-11-03T17:32:39.226Z,14.95
2018-11-03T17:35:06.503Z,13.25
2018-11-03T17:37:33.715Z,12.93
2018-11-03T17:40:00.945Z,13.45
2018-11-03T17:42:28.247Z,13.95
2018-11-03T17:44:55.462Z,15.38
2018-11-03T17:47:22.872Z,13.80
2018-11-03T17:49:50.207Z,12.82
2018-11-03T17:52:17.641Z,14.33
2018-11-03T17:54:45.154Z,13.32
2018-11-03T17:57:12.440Z,14.05
2018-11-03T17:59:39.700Z,13.98
2018-11-03T18:02:07.007Z,14.10
2018-11-03T18:04:34.215Z,14.90
2018-11-03T18:07:01.695Z,14.07
2018-11-03T18:09:29.727Z,16.35
2018-11-03T18:11:57.453Z,14.70
2018-11-03T18:14:25.197Z,13.90
2018-11-03T18:16:52.483Z,15.20
2018-11-03T18:19:19.712Z,13.62
2018-11-03T18:21:46.992Z,14.93
2018-11-03T18:24:14.198Z,14.00
2018-11-03T18:26:41.558Z,15.20
2018-11-03T18:29:08.747Z,14.15
2018-11-03T18:31:36.281Z,14.15
2018-11-03T18:34:03.581Z,13.90
2018-11-03T18:36:31.403Z,15.03
2018-11-03T18:38:58.706Z,15.08
2018-11-03T18:41:25.991Z,14.63
2018-11-03T18:43:53.240Z,14.43
2018-11-03T18:46:20.542Z,13.65
2018-11-03T18:48:47.783Z,15.48
2018-11-03T18:51:15.051Z,14.07
2018-11-03T18:53:42.274Z,13.90
2018-11-03T18:56:09.667Z,14.53
2018-11-03T18:58:36.956Z,15.10
2018-11-03T19:01:04.860Z,15.40
2018-11-03T19:03:32.170Z,14.58
2018-11-03T19:05:59.451Z,15.68
2018-11-03T19:08:26.683Z,13.88
2018-11-03T19:10:53.984Z,13.93
2018-11-03T19:13:21.282Z,13.93
2018-11-03T19:15:48.515Z,13.60
2018-11-03T19:18:16.026Z,16.07
2018-11-03T19:20:43.341Z,13.68
2018-11-03T19:23:10.603Z,14.68
2018-11-03T19:25:37.858Z,15.40
2018-11-03T19:28:05.137Z,15.00
2018-11-03T19:30:32.734Z,14.75
2018-11-03T19:33:00.102Z,15.30
2018-11-03T19:35:27.391Z,14.65
2018-11-03T19:37:54.631Z,14.35
2018-11-03T19:40:21.969Z,14.10
2018-11-03T19:42:50.038Z,14.18
2018-11-03T19:45:17.493Z,13.72
2018-11-03T19:47:45.617Z,14.25
2018-11-03T19:50:12.983Z,15.58
2018-11-03T19:52:40.220Z,15.03
2018-11-03T19:55:07.527Z,16.15
2018-11-03T19:57:34.774Z,13.98
2018-11-03T20:00:02.053Z,14.23
2018-11-03T20:02:29.348Z,14.95
2018-11-03T20:04:56.595Z,14.68
2018-11-03T20:07:24.264Z,15.63
2018-11-03T20:09:51.920Z,14.73
2018-11-03T20:12:19.625Z,13.00
2018-11-03T20:14:46.901Z,14.40
2018-11-03T20:17:14.166Z,16.23
2018-11-03T20:19:41.461Z,15.03
2018-11-03T20:22:08.781Z,15.00
2018-11-03T20:24:36.222Z,15.50
2018-11-03T20:27:03.575Z,16.05
2018-11-03T20:32:11.208Z,15.45
2018-11-03T20:34:38.838Z,15.80
2018-11-03T20:37:09.373Z,14.68
2018-11-03T20:39:36.972Z,14.60
2018-11-03T20:42:06.548Z,15.50
2018-11-03T20:44:34.161Z,15.20
2018-11-03T20:47:01.526Z,15.48
2018-11-03T20:50:00.124Z,14.98
2018-11-03T20:52:28.419Z,14.85
2018-11-03T20:54:57.937Z,16.60
2018-11-03T20:57:25.699Z,14.75
2018-11-03T20:59:55.079Z,16.15
2018-11-03T21:02:22.690Z,16.23
2018-11-03T21:04:50.915Z,16.97
2018-11-03T21:07:21.647Z,15.08
2018-11-03T21:09:49.227Z,14.73
2018-11-03T21:12:16.767Z,17.10
2018-11-03T21:14:44.932Z,17.20
2018-11-03T21:17:13.577Z,14.40
2018-11-03T21:19:41.041Z,15.72
2018-11-03T21:22:09.927Z,14.80
2018-11-03T21:24:37.810Z,15.95
2018-11-03T21:27:07.812Z,15.75
2018-11-03T21:29:36.641Z,15.30
2018-11-03T21:32:05.957Z,18.12
2018-11-03T21:34:33.354Z,16.55
2018-11-03T21:37:01.791Z,16.60
2018-11-03T21:39:29.332Z,16.60
2018-11-03T21:42:14.395Z,14.78
2018-11-03T21:44:42.818Z,16.02
2018-11-03T21:47:10.592Z,14.73
2018-11-03T21:49:40.132Z,15.00
2018-11-03T21:52:07.697Z,14.30
2018-11-03T21:54:35.863Z,14.73
2018-11-03T21:57:03.499Z,14.75
2018-11-03T21:59:31.120Z,15.10
2018-11-03T22:01:58.433Z,14.58
2018-11-03T22:04:25.822Z,13.60
2018-11-03T22:06:54.968Z,15.05
2018-11-03T22:09:23.078Z,15.05
2018-11-03T22:11:51.505Z,15.18
2018-11-03T22:14:19.233Z,15.50
2018-11-03T22:16:47.216Z,15.10
2018-11-03T22:19:19.815Z,15.55
2018-11-03T22:21:47.836Z,15.90
2018-11-03T22:24:15.303Z,18.20
2018-11-03T22:26:43.796Z,18.57
2018-11-03T22:29:11.283Z,18.90
2018-11-03T22:31:38.980Z,17.30
2018-11-03T22:34:06.346Z,15.68
2018-11-03T22:36:35.327Z,17.50
2018-11-03T22:39:04.860Z,15.95
2018-11-03T22:41:33.048Z,17.73
2018-11-03T22:44:01.881Z,15.58
2018-11-03T22:46:29.504Z,18.42
2018-11-03T22:48:57.338Z,14.47
2018-11-03T22:51:24.843Z,15.13
2018-11-03T22:53:52.285Z,15.95
2018-11-03T22:56:20.037Z,15.03
2018-11-03T22:58:49.189Z,16.25
2018-11-03T23:01:16.976Z,13.40
2018-11-03T23:03:44.799Z,15.85
2018-11-03T23:06:12.710Z,15.55
2018-11-03T23:08:40.258Z,15.83
2018-11-03T23:11:07.715Z,14.23
2018-11-03T23:13:35.485Z,15.95
2018-11-03T23:16:06.875Z,15.15
2018-11-03T23:18:34.160Z,14.95
2018-11-03T23:21:01.710Z,14.68
2018-11-03T23:23:28.991Z,14.93
2018-11-03T23:25:57.505Z,15.13
2018-11-03T23:28:24.989Z,13.35
2018-11-03T23:30:52.587Z,14.75
2018-11-03T23:33:22.617Z,16.45
2018-11-03T23:35:50.064Z,17.20
2018-11-03T23:38:19.348Z,18.25
2018-11-03T23:40:49.776Z,17.90
2018-11-03T23:43:17.415Z,17.90
2018-11-03T23:45:45.117Z,17.87
2018-11-03T23:48:12.575Z,16.85
2018-11-03T23:50:42.108Z,17.90
2018-11-03T23:53:09.562Z,18.52
2018-11-03T23:55:37.154Z,17.05
2018-11-03T23:58:04.883Z,18.10
